Time;durP1;ratioP1;P1;durP2;ratioP2;P2;SDS_P1;SDS_P2;PMS_P1;PMS_P2;Temp;Humidity;BMP_temperature;BMP_pressure;BME280_temperature;BME280_humidity;BME280_pressure;Samples;Min_cycle;Max_cycle;Signal;HPM_P1;HPM_P2
2022/07/08 00:00:49;;;;;;;;;;;;;;;13.26;100.00;103121.34;5011015;28;19913;-59
2022/07/08 00:03:14;;;;;;;;;;;;;;;13.21;100.00;103124.09;4996218;28;19925;-59
2022/07/08 00:05:40;;;;;;;;;;;;;;;13.18;100.00;103126.81;4996015;28;19910;-59
2022/07/08 00:08:05;;;;;;;;;;;;;;;13.13;100.00;103118.03;4994415;28;20396;-59
2022/07/08 00:10:31;;;;;;;;;;;;;;;13.10;100.00;103115.44;4995845;28;19917;-59
2022/07/08 00:12:56;;;;;;;;;;;;;;;13.08;100.00;103120.81;4995765;28;19901;-59
2022/07/08 00:15:21;;;;;;;;;;;;;;;13.09;100.00;103124.34;4995802;28;19921;-59
2022/07/08 00:17:47;;;;;;;;;;;;;;;13.09;100.00;103127.88;4995707;28;19914;-59
2022/07/08 00:20:12;;;;;;;;;;;;;;;13.11;100.00;103127.84;4995686;28;19989;-59
2022/07/08 00:22:38;;;;;;;;;;;;;;;13.13;100.00;103122.50;4995461;28;20056;-59
2022/07/08 00:25:03;;;;;;;;;;;;;;;13.12;100.00;103124.28;4995350;28;19936;-60
2022/07/08 00:27:29;;;;;;;;;;;;;;;13.11;100.00;103127.84;4995444;28;19909;-59
2022/07/08 00:29:54;;;;;;;;;;;;;;;13.10;100.00;103123.44;4994046;28;19912;-59
2022/07/08 00:32:19;;;;;;;;;;;;;;;13.13;100.00;103118.03;4995580;28;19953;-60
2022/07/08 00:34:44;;;;;;;;;;;;;;;13.08;100.00;103123.47;4994110;28;19945;-59
2022/07/08 00:37:10;;;;;;;;;;;;;;;13.06;100.00;103129.72;4995135;28;19957;-59
2022/07/08 00:39:35;;;;;;;;;;;;;;;13.02;100.00;103117.38;4995145;28;20293;-59
2022/07/08 00:42:00;;;;;;;;;;;;;;;13.02;100.00;103117.38;4993871;28;20365;-59
2022/07/08 00:44:26;;;;;;;;;;;;;;;13.01;100.00;103123.63;4995115;28;19941;-59
2022/07/08 00:46:51;;;;;;;;;;;;;;;12.99;100.00;103123.63;4994015;28;19964;-59
2022/07/08 00:49:17;;;;;;;;;;;;;;;12.95;100.00;103121.94;4995115;28;19964;-60
2022/07/08 00:51:43;;;;;;;;;;;;;;;12.92;100.00;103127.31;4995180;28;19955;-60
2022/07/08 00:54:09;;;;;;;;;;;;;;;12.88;100.00;103126.50;4994977;28;19921;-60
2022/07/08 00:56:34;;;;;;;;;;;;;;;12.86;100.00;103127.41;5009984;28;19914;-59
2022/07/08 00:58:59;;;;;;;;;;;;;;;12.85;100.00;103115.03;4994654;28;19914;-60
2022/07/08 01:01:25;;;;;;;;;;;;;;;12.85;100.00;103107.94;4993656;28;19920;-59
2022/07/08 01:03:50;;;;;;;;;;;;;;;12.85;100.00;103105.28;4994863;28;20477;-59
2022/07/08 01:06:15;;;;;;;;;;;;;;;12.84;100.00;103108.84;4995049;28;20392;-59
2022/07/08 01:08:41;;;;;;;;;;;;;;;12.81;100.00;103114.19;4992110;28;19928;-60
2022/07/08 01:11:07;;;;;;;;;;;;;;;12.78;100.00;103116.91;4994498;28;19920;-59
2022/07/08 01:13:33;;;;;;;;;;;;;;;12.76;100.00;103127.59;4994740;28;19910;-58
2022/07/08 01:15:58;;;;;;;;;;;;;;;12.74;100.00;103126.72;4994583;28;20008;-58
2022/07/08 01:18:28;;;;;;;;;;;;;;;12.72;100.00;103125.00;4994515;28;19953;-59
2022/07/08 01:20:54;;;;;;;;;;;;;;;12.68;100.00;103121.50;4994504;28;19952;-60
2022/07/08 01:23:19;;;;;;;;;;;;;;;12.66;100.00;103118.03;4994698;28;19910;-59
2022/07/08 01:25:45;;;;;;;;;;;;;;;12.61;100.00;103111.91;4993190;28;19917;-59
2022/07/08 01:28:10;;;;;;;;;;;;;;;12.58;100.00;103111.94;4994497;28;19918;-59
2022/07/08 01:30:36;;;;;;;;;;;;;;;12.56;100.00;103113.75;4994469;28;19916;-59
2022/07/08 01:33:02;;;;;;;;;;;;;;;12.55;100.00;103115.53;4994173;28;19914;-59
2022/07/08 01:35:27;;;;;;;;;;;;;;;12.56;100.00;103116.44;4994282;28;19997;-58
2022/07/08 01:37:52;;;;;;;;;;;;;;;12.53;100.00;103112.03;4976684;28;20016;-59
2022/07/08 01:40:17;;;;;;;;;;;;;;;12.50;100.00;103112.06;4994144;28;19917;-59
2022/07/08 01:42:43;;;;;;;;;;;;;;;12.48;100.00;103118.31;4994122;28;19914;-59
2022/07/08 01:45:08;;;;;;;;;;;;;;;12.44;100.00;103125.44;5008879;28;20320;-59
2022/07/08 01:47:33;;;;;;;;;;;;;;;12.41;100.00;103117.53;4993820;28;19910;-59
2022/07/08 01:49:59;;;;;;;;;;;;;;;12.38;100.00;103107.84;4993833;28;19921;-59
2022/07/08 01:52:24;;;;;;;;;;;;;;;12.33;100.00;103101.72;4993943;28;20389;-59
2022/07/08 01:54:50;;;;;;;;;;;;;;;12.29;100.00;103100.88;4993755;28;19913;-58
2022/07/08 01:57:15;;;;;;;;;;;;;;;12.26;100.00;103108.91;4993934;28;19929;-58
2022/07/08 01:59:44;;;;;;;;;;;;;;;12.28;100.00;103100.91;4993495;28;19922;-59
2022/07/08 02:02:10;;;;;;;;;;;;;;;12.32;100.00;103105.28;4993635;28;19965;-59
2022/07/08 02:04:35;;;;;;;;;;;;;;;12.36;100.00;103100.78;4993747;28;20379;-59
2022/07/08 02:07:00;;;;;;;;;;;;;;;12.36;100.00;103111.44;4993414;28;19909;-59
2022/07/08 02:09:26;;;;;;;;;;;;;;;12.32;100.00;103096.44;4993575;28;19917;-60
2022/07/08 02:14:35;;;;;;;;;;;;;;;12.24;100.00;103110.72;4993946;28;20383;-59
2022/07/08 02:17:00;;;;;;;;;;;;;;;12.23;100.00;103108.94;4992177;28;19917;-61
2022/07/08 02:19:25;;;;;;;;;;;;;;;12.20;100.00;103109.00;4993447;28;20019;-59
2022/07/08 02:21:50;;;;;;;;;;;;;;;12.20;100.00;103111.66;4991798;28;19914;-60
2022/07/08 02:24:16;;;;;;;;;;;;;;;12.22;100.00;103115.16;5008478;28;19913;-58
2022/07/08 02:26:41;;;;;;;;;;;;;;;12.24;100.00;103104.53;4993407;28;19917;-59
2022/07/08 02:29:06;;;;;;;;;;;;;;;12.24;100.00;103097.44;4991983;28;20262;-59
2022/07/08 02:31:32;;;;;;;;;;;;;;;12.23;100.00;103098.31;4993320;28;19918;-58
2022/07/08 02:33:57;;;;;;;;;;;;;;;12.20;100.00;103094.84;5008208;28;19913;-59
2022/07/08 02:36:23;;;;;;;;;;;;;;;12.16;100.00;103093.13;4993779;28;20358;-60
2022/07/08 02:38:48;;;;;;;;;;;;;;;12.16;100.00;103090.47;4991693;28;20370;-59
2022/07/08 02:41:13;;;;;;;;;;;;;;;12.17;100.00;103098.41;4991699;28;20362;-60
2022/07/08 02:43:38;;;;;;;;;;;;;;;12.18;100.00;103100.16;4992894;28;19913;-59
2022/07/08 02:46:04;;;;;;;;;;;;;;;12.18;100.00;103100.16;4992838;28;19914;-60
2022/07/08 02:48:29;;;;;;;;;;;;;;;12.19;100.00;103098.41;4992953;28;19910;-60
2022/07/08 02:50:54;;;;;;;;;;;;;;;12.18;100.00;103105.50;4992677;28;19913;-57
2022/07/08 02:53:20;;;;;;;;;;;;;;;12.17;100.00;103094.88;4993102;28;19965;-60
2022/07/08 02:55:45;;;;;;;;;;;;;;;12.13;100.00;103086.09;4991439;28;19917;-59
2022/07/08 02:58:11;;;;;;;;;;;;;;;12.10;100.00;103094.97;4992546;28;19933;-59
2022/07/08 03:00:36;;;;;;;;;;;;;;;12.07;100.00;103096.81;4992848;28;20357;-60
2022/07/08 03:03:01;;;;;;;;;;;;;;;12.05;100.00;103099.47;4992900;28;20325;-58
2022/07/08 03:05:26;;;;;;;;;;;;;;;12.07;100.00;103095.03;4992821;28;19960;-59
2022/07/08 03:07:51;;;;;;;;;;;;;;;12.09;100.00;103095.00;4991329;28;19937;-59
2022/07/08 03:10:17;;;;;;;;;;;;;;;12.10;100.00;103087.00;4991341;28;19914;-59
2022/07/08 03:12:42;;;;;;;;;;;;;;;12.12;100.00;103097.59;4991424;28;20008;-59
2022/07/08 03:15:08;;;;;;;;;;;;;;;12.09;100.00;103095.00;4992489;28;20000;-59
2022/07/08 03:17:33;;;;;;;;;;;;;;;12.02;100.00;103096.88;5007524;28;19920;-59
2022/07/08 03:19:59;;;;;;;;;;;;;;;12.03;100.00;103097.75;4992491;28;19913;-59
2022/07/08 03:22:24;;;;;;;;;;;;;;;12.02;100.00;103096.88;4991546;28;20332;-59
2022/07/08 03:24:49;;;;;;;;;;;;;;;12.02;100.00;103091.56;4992629;28;19914;-59
2022/07/08 03:27:14;;;;;;;;;;;;;;;12.05;100.00;103094.16;4992522;28;19949;-59
2022/07/08 03:29:40;;;;;;;;;;;;;;;12.06;100.00;103095.03;4991256;28;19925;-59
2022/07/08 03:32:05;;;;;;;;;;;;;;;12.05;100.00;103093.31;4992965;28;19924;-59
2022/07/08 03:34:30;;;;;;;;;;;;;;;12.06;100.00;103089.72;4996565;28;19913;-60
2022/07/08 03:36:55;;;;;;;;;;;;;;;12.07;100.00;103096.81;4996345;28;20384;-59
2022/07/08 03:39:21;;;;;;;;;;;;;;;12.08;100.00;103101.22;4995335;28;20393;-59
2022/07/08 03:41:46;;;;;;;;;;;;;;;12.08;100.00;103102.09;4996433;28;19914;-59
2022/07/08 03:44:11;;;;;;;;;;;;;;;12.06;100.00;103105.66;4978850;28;19917;-59
2022/07/08 03:46:37;;;;;;;;;;;;;;;12.05;100.00;103109.25;4978841;28;19920;-59
2022/07/08 03:49:02;;;;;;;;;;;;;;;12.06;100.00;103105.66;4996276;28;19914;-59
2022/07/08 03:51:27;;;;;;;;;;;;;;;12.11;100.00;103106.47;5011035;28;20425;-59
2022/07/08 03:53:52;;;;;;;;;;;;;;;12.15;100.00;103108.19;4978426;28;20312;-59
2022/07/08 03:56:18;;;;;;;;;;;;;;;12.17;100.00;103110.81;5011143;28;19909;-59
2022/07/08 03:58:43;;;;;;;;;;;;;;;12.15;100.00;103107.31;4995858;28;19953;-58
2022/07/08 04:01:08;;;;;;;;;;;;;;;12.18;100.00;103104.63;4995754;28;20016;-58
2022/07/08 04:03:33;;;;;;;;;;;;;;;12.20;100.00;103102.78;4994803;28;19957;-60
2022/07/08 04:05:59;;;;;;;;;;;;;;;12.22;100.00;103101.88;4995760;28;19917;-60
2022/07/08 04:08:24;;;;;;;;;;;;;;;12.27;100.00;103109.78;4996082;28;20341;-58
2022/07/08 04:10:49;;;;;;;;;;;;;;;12.31;100.00;103107.97;4994363;28;19914;-59
2022/07/08 04:13:15;;;;;;;;;;;;;;;12.33;100.00;103107.03;4995599;28;20307;-59
2022/07/08 04:15:40;;;;;;;;;;;;;;;12.37;100.00;103099.91;4995775;28;19946;-58
2022/07/08 04:18:05;;;;;;;;;;;;;;;12.42;100.00;103108.66;4995490;28;19917;-58
2022/07/08 04:20:30;;;;;;;;;;;;;;;12.47;100.00;103101.50;4995752;28;19936;-59
2022/07/08 04:22:56;;;;;;;;;;;;;;;12.51;100.00;103097.88;4995472;28;19914;-59
2022/07/08 04:25:21;;;;;;;;;;;;;;;12.57;100.00;103119.03;4995586;28;20274;-59
2022/07/08 04:27:46;;;;;;;;;;;;;;;12.62;100.00;103108.31;4994396;28;19920;-60
2022/07/08 04:30:12;;;;;;;;;;;;;;;12.68;100.00;103118.00;4995398;28;20462;-59
2022/07/08 04:32:37;;;;;;;;;;;;;;;12.71;100.00;103104.63;4995589;28;19920;-59
2022/07/08 04:35:02;;;;;;;;;;;;;;;12.75;100.00;103111.66;4995254;28;19914;-59
2022/07/08 04:37:28;;;;;;;;;;;;;;;12.77;100.00;103104.53;4995370;28;19920;-60
2022/07/08 04:39:53;;;;;;;;;;;;;;;12.80;100.00;103112.47;4995205;28;19914;-60
2022/07/08 04:42:18;;;;;;;;;;;;;;;12.85;100.00;103117.69;5010326;28;19916;-60
2022/07/08 04:44:44;;;;;;;;;;;;;;;12.92;100.00;103128.19;4993926;28;19914;-58
2022/07/08 04:47:09;;;;;;;;;;;;;;;12.99;100.00;103131.59;4994858;28;19913;-58
2022/07/08 04:49:34;;;;;;;;;;;;;;;13.06;100.00;103137.69;4993866;28;19953;-60
2022/07/08 04:52:00;;;;;;;;;;;;;;;13.11;100.00;103138.50;4993668;28;20340;-60
2022/07/08 04:54:25;;;;;;;;;;;;;;;13.17;100.00;103140.16;4995106;28;19909;-59
2022/07/08 04:56:50;;;;;;;;;;;;;;;13.23;100.00;103151.53;4993733;28;19968;-59
2022/07/08 04:59:15;;;;;;;;;;;;;;;13.29;100.00;103153.22;4994726;28;19926;-60
2022/07/08 05:01:40;;;;;;;;;;;;;;;13.34;100.00;103156.69;4994750;28;19996;-59
2022/07/08 05:04:06;;;;;;;;;;;;;;;13.40;100.00;103150.38;4994644;28;20045;-59
2022/07/08 05:06:32;;;;;;;;;;;;;;;13.47;100.00;103162.66;4994698;28;20489;-61
2022/07/08 05:08:57;;;;;;;;;;;;;;;13.54;100.00;103168.72;4977254;28;19922;-59
2022/07/08 05:11:23;;;;;;;;;;;;;;;13.60;100.00;103168.63;4994674;28;20011;-59
2022/07/08 05:13:48;;;;;;;;;;;;;;;13.67;100.00;103164.94;4994611;28;19924;-59
2022/07/08 05:16:13;;;;;;;;;;;;;;;13.73;100.00;103167.47;4994435;28;20004;-59
2022/07/08 05:18:40;;;;;;;;;;;;;;;13.77;100.00;103165.59;4993105;28;20323;-59
2022/07/08 05:21:05;;;;;;;;;;;;;;;13.82;100.00;103163.72;4994250;28;19928;-60
2022/07/08 05:23:30;;;;;;;;;;;;;;;13.90;100.00;103158.22;4993134;28;19914;-60
2022/07/08 05:25:55;;;;;;;;;;;;;;;13.99;100.00;103167.81;4994266;28;19956;-59
2022/07/08 05:28:21;;;;;;;;;;;;;;;14.05;100.00;103152.59;4994696;28;19910;-59
2022/07/08 05:30:46;;;;;;;;;;;;;;;14.15;100.00;103157.69;4994655;28;20004;-61
2022/07/08 05:33:11;;;;;;;;;;;;;;;14.24;100.00;103161.00;4993016;28;20012;-60
2022/07/08 05:35:36;;;;;;;;;;;;;;;14.34;100.00;103155.47;4994229;28;19917;-57
2022/07/08 05:38:01;;;;;;;;;;;;;;;14.41;100.00;103160.63;4992842;28;19922;-59
2022/07/08 05:40:27;;;;;;;;;;;;;;;14.46;100.00;103163.16;4994159;28;19914;-61
2022/07/08 05:42:52;;;;;;;;;;;;;;;14.56;100.00;103169.16;4994418;28;19913;-59
2022/07/08 05:45:17;;;;;;;;;;;;;;;14.67;100.00;103168.94;4993725;28;20395;-60
2022/07/08 05:47:43;;;;;;;;;;;;;;;14.77;100.00;103165.13;4993944;28;19967;-60
2022/07/08 05:50:08;;;;;;;;;;;;;;;15.00;100.00;103167.19;4993792;28;19913;-60
2022/07/08 05:52:33;;;;;;;;;;;;;;;15.23;100.00;103161.25;4993705;28;19918;-60
2022/07/08 05:54:59;;;;;;;;;;;;;;;15.40;100.00;103163.44;4993306;28;19968;-60
2022/07/08 05:57:24;;;;;;;;;;;;;;;15.49;100.00;103164.97;5008900;28;19916;-60
2022/07/08 05:59:52;;;;;;;;;;;;;;;15.61;100.00;103169.06;4993847;28;19918;-59
2022/07/08 06:02:18;;;;;;;;;;;;;;;15.76;100.00;103167.75;4993357;28;20004;-60
2022/07/08 06:04:43;;;;;;;;;;;;;;;15.92;100.00;103176.25;4993508;28;19920;-60
2022/07/08 06:07:08;;;;;;;;;;;;;;;16.09;100.00;103174.81;5008547;28;20419;-60
2022/07/08 06:09:34;;;;;;;;;;;;;;;16.26;100.00;103185.88;4993462;28;19932;-60
2022/07/08 06:11:59;;;;;;;;;;;;;;;16.42;100.00;103185.38;4993289;28;19945;-59
2022/07/08 06:14:24;;;;;;;;;;;;;;;16.51;100.00;103180.63;4993608;28;19910;-60
2022/07/08 06:16:50;;;;;;;;;;;;;;;16.66;100.00;103183.72;4993257;28;19937;-61
2022/07/08 06:19:15;;;;;;;;;;;;;;;16.91;100.00;103189.16;4993082;28;19928;-59
2022/07/08 06:21:41;;;;;;;;;;;;;;;16.95;100.00;103193.47;4993270;28;19918;-59
2022/07/08 06:24:06;;;;;;;;;;;;;;;17.00;100.00;103186.16;4993277;28;19914;-59
2022/07/08 06:26:31;;;;;;;;;;;;;;;17.20;100.00;103193.47;4993390;28;19918;-60
2022/07/08 06:28:57;;;;;;;;;;;;;;;17.28;100.00;103200.38;5008276;28;19913;-62
2022/07/08 06:31:22;;;;;;;;;;;;;;;17.27;100.00;103202.16;4993437;28;20435;-59
2022/07/08 06:33:48;;;;;;;;;;;;;;;17.19;100.00;103199.75;5008234;28;19910;-58
2022/07/08 06:36:13;;;;;;;;;;;;;;;17.26;100.00;103203.09;4992857;28;19913;-57
2022/07/08 06:38:38;;;;;;;;;;;;;;;17.41;100.00;103196.31;4992914;28;20005;-58
2022/07/08 06:41:04;;;;;;;;;;;;;;;17.60;100.00;103193.84;4993039;28;19984;-59
2022/07/08 06:43:29;;;;;;;;;;;;;;;17.95;96.05;103199.69;4992918;28;19914;-60
2022/07/08 06:45:54;;;;;;;;;;;;;;;18.15;94.67;103195.38;4991598;28;19920;-59
2022/07/08 06:48:19;;;;;;;;;;;;;;;18.37;93.84;103200.75;4991811;28;19914;-59
2022/07/08 06:50:45;;;;;;;;;;;;;;;18.55;92.92;103207.19;4992649;28;20325;-59
2022/07/08 06:53:10;;;;;;;;;;;;;;;18.68;90.74;103210.22;4992961;28;20207;-60
2022/07/08 06:55:35;;;;;;;;;;;;;;;18.73;89.79;103202.00;4992814;28;19914;-59
2022/07/08 06:58:00;;;;;;;;;;;;;;;18.97;89.22;103198.28;4992473;28;19917;-59
2022/07/08 07:00:26;;;;;;;;;;;;;;;19.19;87.37;103197.34;4992848;28;19979;-60
2022/07/08 07:02:51;;;;;;;;;;;;;;;19.18;88.00;103206.34;4991327;28;19953;-59
2022/07/08 07:05:19;;;;;;;;;;;;;;;19.04;88.00;103206.09;4992410;28;20384;-59
2022/07/08 07:07:44;;;;;;;;;;;;;;;19.20;86.58;103199.09;4991752;28;19917;-59
2022/07/08 07:10:10;;;;;;;;;;;;;;;19.27;85.72;103192.53;4992603;28;19920;-59
2022/07/08 07:12:35;;;;;;;;;;;;;;;19.30;85.77;103197.75;4991432;28;19922;-59
2022/07/08 07:15:00;;;;;;;;;;;;;;;19.40;84.54;103187.50;4992370;28;19996;-59
2022/07/08 07:17:26;;;;;;;;;;;;;;;19.32;85.36;103187.84;5007940;28;19960;-61
2022/07/08 07:19:51;;;;;;;;;;;;;;;19.32;87.74;103195.88;4992374;28;19914;-59
2022/07/08 07:22:16;;;;;;;;;;;;;;;19.32;85.40;103195.00;4992423;28;19919;-59
2022/07/08 07:24:42;;;;;;;;;;;;;;;19.52;84.01;103193.25;4992580;28;20281;-60
2022/07/08 07:27:07;;;;;;;;;;;;;;;19.65;78.86;103192.63;4992215;28;20008;-59
2022/07/08 07:29:33;;;;;;;;;;;;;;;19.77;78.26;103201.03;4992512;28;19992;-58
2022/07/08 07:31:58;;;;;;;;;;;;;;;19.82;77.83;103196.34;4992320;28;19910;-59
2022/07/08 07:34:24;;;;;;;;;;;;;;;19.83;79.78;103194.56;4991266;28;20368;-59
2022/07/08 07:36:49;;;;;;;;;;;;;;;19.93;80.12;103193.19;4992302;28;19909;-60
2022/07/08 07:39:14;;;;;;;;;;;;;;;20.04;81.14;103196.22;4992165;28;20285;-59
2022/07/08 07:41:40;;;;;;;;;;;;;;;20.04;77.89;103200.72;4991015;28;19913;-59
2022/07/08 07:44:05;;;;;;;;;;;;;;;20.04;76.41;103198.91;4992294;28;19913;-60
2022/07/08 07:46:31;;;;;;;;;;;;;;;19.93;77.94;103199.41;4992233;28;19925;-59
2022/07/08 07:48:56;;;;;;;;;;;;;;;20.01;76.87;103193.66;4992238;28;19910;-58
2022/07/08 07:51:22;;;;;;;;;;;;;;;19.93;78.20;103193.19;4992218;28;20423;-58
2022/07/08 07:53:47;;;;;;;;;;;;;;;20.03;78.46;103193.63;4992101;28;19910;-59
2022/07/08 07:56:12;;;;;;;;;;;;;;;20.23;76.45;103188.16;4992018;28;19957;-61
2022/07/08 07:58:38;;;;;;;;;;;;;;;20.22;76.14;103188.22;4990490;28;19917;-59
2022/07/08 08:01:03;;;;;;;;;;;;;;;20.19;73.42;103185.66;4991916;28;19921;-58
2022/07/08 08:03:28;;;;;;;;;;;;;;;20.30;74.66;103191.41;4992110;28;19988;-59
2022/07/08 08:05:54;;;;;;;;;;;;;;;20.28;76.06;103183.41;4990848;28;20361;-58
2022/07/08 08:08:19;;;;;;;;;;;;;;;20.36;78.63;103183.03;4991810;28;20020;-58
2022/07/08 08:10:44;;;;;;;;;;;;;;;20.34;76.69;103187.59;4991850;28;20309;-59
2022/07/08 08:13:10;;;;;;;;;;;;;;;20.30;77.69;103183.34;4990645;28;19956;-59
2022/07/08 08:15:36;;;;;;;;;;;;;;;20.22;78.26;103186.41;4991956;28;20329;-59
2022/07/08 08:18:01;;;;;;;;;;;;;;;20.00;79.58;103194.63;4991082;28;19933;-58
2022/07/08 08:20:28;;;;;;;;;;;;;;;19.72;82.22;103176.19;4995548;28;20321;-57
2022/07/08 08:22:53;;;;;;;;;;;;;;;19.62;81.25;103170.38;4995656;28;19932;-57
2022/07/08 08:25:19;;;;;;;;;;;;;;;19.39;82.00;103171.44;4995534;28;20365;-59
2022/07/08 08:27:45;;;;;;;;;;;;;;;19.20;82.78;103184.81;4995525;28;20323;-59
2022/07/08 08:30:10;;;;;;;;;;;;;;;19.11;83.08;103186.94;4994117;28;20384;-59
2022/07/08 08:32:36;;;;;;;;;;;;;;;19.07;85.30;103182.66;4995389;28;19910;-60
2022/07/08 08:35:01;;;;;;;;;;;;;;;19.15;84.86;103179.63;4993921;28;19914;-59
2022/07/08 08:37:26;;;;;;;;;;;;;;;19.27;84.51;103192.53;4994579;28;20008;-60
2022/07/08 08:39:52;;;;;;;;;;;;;;;19.36;85.62;103187.69;4995221;28;19948;-60
2022/07/08 08:42:18;;;;;;;;;;;;;;;19.70;82.25;103192.38;4995229;28;19909;-60
2022/07/08 08:44:44;;;;;;;;;;;;;;;20.35;79.41;103193.88;4995142;28;19917;-59
2022/07/08 08:47:11;;;;;;;;;;;;;;;21.86;71.98;103196.84;4993552;28;19922;-59
2022/07/08 08:49:36;;;;;;;;;;;;;;;23.39;65.93;103193.34;4994990;28;20345;-59
2022/07/08 08:52:02;;;;;;;;;;;;;;;24.03;62.75;103184.81;4995010;28;19910;-58
2022/07/08 08:54:31;;;;;;;;;;;;;;;24.84;55.34;103188.50;4993938;28;19910;-59
2022/07/08 08:56:56;;;;;;;;;;;;;;;25.28;50.31;103197.22;4977354;28;19913;-59
2022/07/08 08:59:22;;;;;;;;;;;;;;;25.77;48.78;103183.81;4995000;28;19940;-60
2022/07/08 09:01:47;;;;;;;;;;;;;;;26.35;46.39;103194.13;4994790;28;19921;-59
2022/07/08 09:04:13;;;;;;;;;;;;;;;26.22;43.67;103189.59;4994492;28;19964;-59
2022/07/08 09:06:39;;;;;;;;;;;;;;;26.36;42.90;103193.09;4994712;28;19909;-59
2022/07/08 09:09:05;;;;;;;;;;;;;;;26.82;41.57;103189.63;4994493;28;19980;-60
2022/07/08 09:11:32;;;;;;;;;;;;;;;26.79;41.49;103193.47;4994820;28;19953;-59
2022/07/08 09:14:12;;;;;;;;;;;;;;;26.84;42.70;103190.38;4994606;28;19910;-59
2022/07/08 09:16:37;;;;;;;;;;;;;;;27.08;41.39;103184.00;4994565;28;19910;-60
2022/07/08 09:19:13;;;;;;;;;;;;;;;27.39;41.14;103189.75;4993289;28;20392;-59
2022/07/08 09:21:39;;;;;;;;;;;;;;;27.19;41.14;103186.75;4994552;28;19910;-59
2022/07/08 09:24:17;;;;;;;;;;;;;;;27.18;43.85;103186.88;4994409;28;19916;-60
2022/07/08 09:26:42;;;;;;;;;;;;;;;27.44;41.63;103191.13;4994616;28;19991;-59
2022/07/08 09:29:07;;;;;;;;;;;;;;;27.56;40.70;103191.09;4994088;28;20347;-59
2022/07/08 09:31:34;;;;;;;;;;;;;;;27.51;40.70;103177.00;4993577;28;19920;-60
2022/07/08 09:34:05;;;;;;;;;;;;;;;27.30;38.56;103181.31;4994243;28;20380;-60
2022/07/08 09:36:42;;;;;;;;;;;;;;;26.73;41.18;103193.06;4993419;28;19917;-60
2022/07/08 09:39:08;;;;;;;;;;;;;;;27.66;39.21;103194.84;5009183;28;19914;-59
2022/07/08 09:41:45;;;;;;;;;;;;;;;27.50;39.70;103192.47;4994327;28;19964;-59
2022/07/08 09:44:16;;;;;;;;;;;;;;;27.68;40.80;103198.28;4993973;28;19910;-59
2022/07/08 09:46:42;;;;;;;;;;;;;;;27.13;39.64;103192.66;4992797;28;20001;-60
2022/07/08 09:49:07;;;;;;;;;;;;;;;26.82;42.49;103195.94;4993890;28;20008;-60
2022/07/08 09:51:32;;;;;;;;;;;;;;;27.27;36.78;103205.19;4994068;28;19920;-60
2022/07/08 09:54:10;;;;;;;;;;;;;;;26.93;39.74;103200.53;4993998;28;19913;-59
2022/07/08 09:56:36;;;;;;;;;;;;;;;27.24;36.59;103203.56;4993821;28;19913;-60
2022/07/08 09:59:01;;;;;;;;;;;;;;;26.61;37.96;103203.88;4993438;28;19968;-61
2022/07/08 10:01:27;;;;;;;;;;;;;;;27.05;37.70;103193.28;4994028;28;19975;-60
2022/07/08 10:03:53;;;;;;;;;;;;;;;27.40;38.20;103199.66;4993550;28;19914;-61
2022/07/08 10:06:19;;;;;;;;;;;;;;;27.54;37.67;103193.97;4993527;28;20009;-59
2022/07/08 10:08:44;;;;;;;;;;;;;;;27.43;37.60;103199.41;4993222;28;20012;-62
2022/07/08 10:11:11;;;;;;;;;;;;;;;27.97;35.13;103189.59;4993466;28;19964;-60
2022/07/08 10:13:38;;;;;;;;;;;;;;;27.89;35.11;103197.50;4991933;28;19913;-60
2022/07/08 10:16:04;;;;;;;;;;;;;;;27.65;35.42;103198.56;4993704;28;19914;-60
2022/07/08 10:18:38;;;;;;;;;;;;;;;27.49;39.50;103196.19;4993307;28;20361;-60
2022/07/08 10:21:05;;;;;;;;;;;;;;;28.09;34.51;103195.91;4993234;28;19909;-59
2022/07/08 10:23:34;;;;;;;;;;;;;;;28.12;33.26;103206.53;4992323;28;19913;-60
2022/07/08 10:26:02;;;;;;;;;;;;;;;27.90;36.06;103196.53;4993371;28;19914;-60
2022/07/08 10:28:37;;;;;;;;;;;;;;;27.84;34.74;103200.63;4993443;28;19910;-60
2022/07/08 10:31:02;;;;;;;;;;;;;;;27.63;34.89;103197.78;4993174;28;19956;-60
2022/07/08 10:33:28;;;;;;;;;;;;;;;27.49;38.12;103201.63;4992210;28;19914;-60
2022/07/08 10:36:02;;;;;;;;;;;;;;;27.85;34.17;103199.63;4993045;28;20316;-59
2022/07/08 10:38:38;;;;;;;;;;;;;;;27.97;33.44;103197.75;4993207;28;19920;-59
2022/07/08 10:41:05;;;;;;;;;;;;;;;28.38;33.40;103192.59;4992806;28;19910;-59
2022/07/08 10:43:31;;;;;;;;;;;;;;;28.21;33.16;103199.47;4993076;28;20000;-61
2022/07/08 10:46:04;;;;;;;;;;;;;;;28.52;34.55;103202.31;4993221;28;19996;-60
2022/07/08 10:48:45;;;;;;;;;;;;;;;28.71;32.34;103190.72;4992749;28;19910;-59
2022/07/08 10:51:19;;;;;;;;;;;;;;;28.68;34.80;103191.00;4992714;28;19910;-59
2022/07/08 10:53:48;;;;;;;;;;;;;;;28.97;32.02;103184.91;4992835;28;19910;-59
2022/07/08 10:56:33;;;;;;;;;;;;;;;28.86;31.30;103183.94;4993073;28;19918;-59
2022/07/08 10:59:14;;;;;;;;;;;;;;;28.61;34.84;103198.81;4990928;28;19922;-59
2022/07/08 11:01:39;;;;;;;;;;;;;;;28.43;31.42;103202.13;4992645;28;19921;-60
2022/07/08 11:04:21;;;;;;;;;;;;;;;28.38;32.18;103192.59;4992814;28;19910;-60
2022/07/08 11:06:46;;;;;;;;;;;;;;;28.18;32.74;103181.50;4992613;28;19913;-60
2022/07/08 11:09:15;;;;;;;;;;;;;;;28.28;32.94;103185.19;4992214;28;19929;-59
2022/07/08 11:11:40;;;;;;;;;;;;;;;28.50;32.79;103182.53;4992547;28;19910;-60
2022/07/08 11:14:05;;;;;;;;;;;;;;;28.39;33.21;103191.59;4991424;28;19918;-59
2022/07/08 11:16:31;;;;;;;;;;;;;;;27.91;32.99;103184.66;4992571;28;19913;-60
2022/07/08 11:18:56;;;;;;;;;;;;;;;28.07;33.85;103187.00;4992663;28;19921;-60
2022/07/08 11:21:22;;;;;;;;;;;;;;;28.29;32.96;103184.19;4975094;28;19964;-60
2022/07/08 11:23:47;;;;;;;;;;;;;;;28.18;33.31;103186.09;4992197;28;20417;-60
2022/07/08 11:26:17;;;;;;;;;;;;;;;28.17;33.82;103181.66;4992313;28;19914;-60
2022/07/08 11:28:42;;;;;;;;;;;;;;;28.65;34.70;103183.09;4992456;28;20376;-59
2022/07/08 11:31:17;;;;;;;;;;;;;;;27.95;34.26;103180.69;4992251;28;19910;-60
2022/07/08 11:33:43;;;;;;;;;;;;;;;28.25;34.36;103185.47;4992457;28;19910;-59
2022/07/08 11:36:18;;;;;;;;;;;;;;;28.38;34.29;103189.88;4992335;28;19914;-59
2022/07/08 11:38:43;;;;;;;;;;;;;;;27.96;35.87;103191.44;4992305;28;19921;-61
2022/07/08 11:41:09;;;;;;;;;;;;;;;27.92;35.31;103186.38;4992355;28;20344;-59
2022/07/08 11:43:34;;;;;;;;;;;;;;;27.56;37.19;103189.28;4992417;28;20400;-60
2022/07/08 11:45:59;;;;;;;;;;;;;;;27.88;38.71;103191.22;4991207;28;20020;-60
2022/07/08 11:48:37;;;;;;;;;;;;;;;28.38;35.43;103192.59;4991167;28;19918;-60
2022/07/08 11:51:02;;;;;;;;;;;;;;;27.95;36.79;103195.16;5007206;28;20266;-60
2022/07/08 11:53:27;;;;;;;;;;;;;;;27.87;40.36;103202.25;4993716;28;20379;-60
2022/07/08 11:55:52;;;;;;;;;;;;;;;28.35;38.38;103196.47;4996327;28;20381;-60
2022/07/08 11:58:22;;;;;;;;;;;;;;;28.39;37.69;103197.94;4994559;28;20777;-60
2022/07/08 12:00:48;;;;;;;;;;;;;;;28.67;36.58;103192.00;4995860;28;20037;-60
2022/07/08 12:03:13;;;;;;;;;;;;;;;28.73;36.73;103207.84;4994624;28;20016;-60
2022/07/08 12:05:38;;;;;;;;;;;;;;;28.75;36.61;103201.25;4995855;28;19936;-60
2022/07/08 12:08:13;;;;;;;;;;;;;;;28.84;35.56;103201.44;4995591;28;19922;-59
2022/07/08 12:10:38;;;;;;;;;;;;;;;28.83;35.32;103194.28;4995930;28;19920;-60
2022/07/08 12:13:03;;;;;;;;;;;;;;;28.67;36.34;103194.72;5010803;28;19910;-60
2022/07/08 12:15:35;;;;;;;;;;;;;;;28.94;35.46;103192.34;4995688;28;20344;-60
2022/07/08 12:18:01;;;;;;;;;;;;;;;28.73;35.00;103194.22;4995461;28;19910;-61
2022/07/08 12:20:32;;;;;;;;;;;;;;;28.21;36.40;103205.78;4994307;28;20016;-60
2022/07/08 12:22:58;;;;;;;;;;;;;;;28.53;35.65;103191.31;4994492;28;19916;-61
2022/07/08 12:25:23;;;;;;;;;;;;;;;28.29;36.65;103183.34;4995419;28;19914;-60
2022/07/08 12:27:55;;;;;;;;;;;;;;;28.30;37.18;103185.09;4995555;28;19920;-60